sensor_id;sensor_type;location;lat;lon;timestamp;temperature;humidity
15666;DHT22;20725;51.196;3.510;2022-12-07T00:00:38;4.30;99.90
15666;DHT22;20725;51.196;3.510;2022-12-07T00:03:15;4.40;99.90
15666;DHT22;20725;51.196;3.510;2022-12-07T00:06:08;4.30;99.90
15666;DHT22;20725;51.196;3.510;2022-12-07T00:08:56;4.20;99.90
15666;DHT22;20725;51.196;3.510;2022-12-07T00:11:44;4.30;99.90
15666;DHT22;20725;51.196;3.510;2022-12-07T00:14:36;4.20;99.90
15666;DHT22;20725;51.196;3.510;2022-12-07T00:17:43;4.20;99.90
15666;DHT22;20725;51.196;3.510;2022-12-07T00:20:26;4.20;99.90
15666;DHT22;20725;51.196;3.510;2022-12-07T00:23:07;4.20;99.90
15666;DHT22;20725;51.196;3.510;2022-12-07T00:25:53;3.90;99.90
15666;DHT22;20725;51.196;3.510;2022-12-07T00:28:47;3.90;99.90
15666;DHT22;20725;51.196;3.510;2022-12-07T00:31:38;3.70;99.90
15666;DHT22;20725;51.196;3.510;2022-12-07T00:34:14;3.60;99.90
15666;DHT22;20725;51.196;3.510;2022-12-07T00:37:01;3.50;99.90
15666;DHT22;20725;51.196;3.510;2022-12-07T00:39:51;3.40;99.90
15666;DHT22;20725;51.196;3.510;2022-12-07T00:42:51;3.40;99.90
15666;DHT22;20725;51.196;3.510;2022-12-07T00:45:35;3.30;99.90
15666;DHT22;20725;51.196;3.510;2022-12-07T00:48:19;3.40;99.90
15666;DHT22;20725;51.196;3.510;2022-12-07T00:51:01;3.50;99.90
15666;DHT22;20725;51.196;3.510;2022-12-07T00:53:55;3.60;99.90
15666;DHT22;20725;51.196;3.510;2022-12-07T00:56:46;3.80;99.90
15666;DHT22;20725;51.196;3.510;2022-12-07T00:59:27;3.90;99.90
15666;DHT22;20725;51.196;3.510;2022-12-07T01:07:28;4.20;99.90
15666;DHT22;20725;51.196;3.510;2022-12-07T01:10:21;4.30;99.90
15666;DHT22;20725;51.196;3.510;2022-12-07T01:13:28;4.30;99.90
15666;DHT22;20725;51.196;3.510;2022-12-07T01:16:44;4.50;99.90
15666;DHT22;20725;51.196;3.510;2022-12-07T01:19:28;4.50;99.90
15666;DHT22;20725;51.196;3.510;2022-12-07T01:22:40;4.50;99.90
15666;DHT22;20725;51.196;3.510;2022-12-07T01:25:21;4.60;99.90
15666;DHT22;20725;51.196;3.510;2022-12-07T01:28:07;4.60;99.90
15666;DHT22;20725;51.196;3.510;2022-12-07T01:31:44;4.60;99.90
15666;DHT22;20725;51.196;3.510;2022-12-07T01:34:25;4.60;99.90
15666;DHT22;20725;51.196;3.510;2022-12-07T01:37:23;4.60;99.90
15666;DHT22;20725;51.196;3.510;2022-12-07T01:40:24;4.50;99.90
15666;DHT22;20725;51.196;3.510;2022-12-07T01:43:37;4.50;99.90
15666;DHT22;20725;51.196;3.510;2022-12-07T01:46:53;4.50;99.90
15666;DHT22;20725;51.196;3.510;2022-12-07T01:49:42;4.50;99.90
15666;DHT22;20725;51.196;3.510;2022-12-07T01:52:47;4.40;99.90
15666;DHT22;20725;51.196;3.510;2022-12-07T01:55:58;4.50;99.90
15666;DHT22;20725;51.196;3.510;2022-12-07T01:59:23;4.50;99.90
15666;DHT22;20725;51.196;3.510;2022-12-07T02:23:04;4.50;99.90
15666;DHT22;20725;51.196;3.510;2022-12-07T02:33:18;4.80;99.90
15666;DHT22;20725;51.196;3.510;2022-12-07T02:36:27;4.80;99.90
15666;DHT22;20725;51.196;3.510;2022-12-07T02:39:19;4.70;99.90
15666;DHT22;20725;51.196;3.510;2022-12-07T02:42:28;4.80;99.90
15666;DHT22;20725;51.196;3.510;2022-12-07T02:45:05;4.70;99.90
15666;DHT22;20725;51.196;3.510;2022-12-07T02:51:09;4.80;99.90
15666;DHT22;20725;51.196;3.510;2022-12-07T02:57:49;4.80;99.90
15666;DHT22;20725;51.196;3.510;2022-12-07T03:00:59;4.70;99.90
15666;DHT22;20725;51.196;3.510;2022-12-07T03:03:43;4.60;99.90
15666;DHT22;20725;51.196;3.510;2022-12-07T03:06:46;4.40;99.90
15666;DHT22;20725;51.196;3.510;2022-12-07T03:09:59;4.30;99.90
15666;DHT22;20725;51.196;3.510;2022-12-07T03:13:05;4.30;99.90
15666;DHT22;20725;51.196;3.510;2022-12-07T03:16:07;4.20;99.90
15666;DHT22;20725;51.196;3.510;2022-12-07T03:19:13;4.10;99.90
15666;DHT22;20725;51.196;3.510;2022-12-07T03:25:27;4.20;99.90
15666;DHT22;20725;51.196;3.510;2022-12-07T03:28:48;4.10;99.90
15666;DHT22;20725;51.196;3.510;2022-12-07T03:32:08;4.10;99.90
15666;DHT22;20725;51.196;3.510;2022-12-07T03:35:05;4.00;99.90
15666;DHT22;20725;51.196;3.510;2022-12-07T03:38:22;3.90;99.90
15666;DHT22;20725;51.196;3.510;2022-12-07T03:41:35;3.80;99.90
15666;DHT22;20725;51.196;3.510;2022-12-07T03:44:28;3.70;99.90
15666;DHT22;20725;51.196;3.510;2022-12-07T03:51:05;3.70;99.90
15666;DHT22;20725;51.196;3.510;2022-12-07T03:53:53;3.70;99.90
15666;DHT22;20725;51.196;3.510;2022-12-07T03:56:59;3.70;99.90
15666;DHT22;20725;51.196;3.510;2022-12-07T04:00:56;3.60;99.90
15666;DHT22;20725;51.196;3.510;2022-12-07T04:03:03;3.60;99.90
15666;DHT22;20725;51.196;3.510;2022-12-07T04:05:42;3.70;99.90
15666;DHT22;20725;51.196;3.510;2022-12-07T04:08:27;3.50;99.90
15666;DHT22;20725;51.196;3.510;2022-12-07T04:11:16;3.50;99.90
15666;DHT22;20725;51.196;3.510;2022-12-07T04:14:22;3.60;99.90
15666;DHT22;20725;51.196;3.510;2022-12-07T04:17:21;3.70;99.90
15666;DHT22;20725;51.196;3.510;2022-12-07T04:20:37;3.80;99.90
15666;DHT22;20725;51.196;3.510;2022-12-07T04:23:30;3.90;99.90
15666;DHT22;20725;51.196;3.510;2022-12-07T04:26:42;4.00;99.90
15666;DHT22;20725;51.196;3.510;2022-12-07T04:29:15;4.00;99.90
15666;DHT22;20725;51.196;3.510;2022-12-07T04:32:10;3.80;99.90
15666;DHT22;20725;51.196;3.510;2022-12-07T04:38:54;3.90;99.90
15666;DHT22;20725;51.196;3.510;2022-12-07T04:41:50;4.00;99.90
15666;DHT22;20725;51.196;3.510;2022-12-07T04:44:46;3.90;99.90
15666;DHT22;20725;51.196;3.510;2022-12-07T04:47:57;3.80;99.90
15666;DHT22;20725;51.196;3.510;2022-12-07T04:50:36;3.80;99.90
15666;DHT22;20725;51.196;3.510;2022-12-07T04:53:37;3.60;99.90
15666;DHT22;20725;51.196;3.510;2022-12-07T04:56:36;3.60;99.90
15666;DHT22;20725;51.196;3.510;2022-12-07T04:59:26;3.50;99.90
15666;DHT22;20725;51.196;3.510;2022-12-07T05:02:38;3.40;99.90
15666;DHT22;20725;51.196;3.510;2022-12-07T05:05:28;3.30;99.90
15666;DHT22;20725;51.196;3.510;2022-12-07T05:08:29;3.50;99.90
15666;DHT22;20725;51.196;3.510;2022-12-07T05:11:29;3.40;99.90
15666;DHT22;20725;51.196;3.510;2022-12-07T05:14:46;3.50;99.90
15666;DHT22;20725;51.196;3.510;2022-12-07T05:21:08;3.40;99.90
15666;DHT22;20725;51.196;3.510;2022-12-07T05:27:13;3.00;99.90
15666;DHT22;20725;51.196;3.510;2022-12-07T05:33:22;3.10;99.90
15666;DHT22;20725;51.196;3.510;2022-12-07T05:36:26;3.00;99.90
15666;DHT22;20725;51.196;3.510;2022-12-07T05:42:42;3.40;99.90
15666;DHT22;20725;51.196;3.510;2022-12-07T05:49:00;3.20;99.90
15666;DHT22;20725;51.196;3.510;2022-12-07T05:52:15;3.10;99.90
15666;DHT22;20725;51.196;3.510;2022-12-07T05:55:09;3.10;99.90
15666;DHT22;20725;51.196;3.510;2022-12-07T05:58:11;2.90;99.90
15666;DHT22;20725;51.196;3.510;2022-12-07T06:01:47;2.70;99.90
15666;DHT22;20725;51.196;3.510;2022-12-07T06:04:23;2.70;99.90
15666;DHT22;20725;51.196;3.510;2022-12-07T06:10:32;2.90;99.90
15666;DHT22;20725;51.196;3.510;2022-12-07T06:16:39;3.30;99.90
15666;DHT22;20725;51.196;3.510;2022-12-07T06:19:36;3.60;99.90
15666;DHT22;20725;51.196;3.510;2022-12-07T06:22:37;3.70;99.90
15666;DHT22;20725;51.196;3.510;2022-12-07T06:25:48;3.90;99.90
15666;DHT22;20725;51.196;3.510;2022-12-07T06:28:52;4.00;99.90
15666;DHT22;20725;51.196;3.510;2022-12-07T06:35:16;4.20;99.90
15666;DHT22;20725;51.196;3.510;2022-12-07T06:38:25;4.20;99.90
15666;DHT22;20725;51.196;3.510;2022-12-07T06:44:42;4.30;99.90
15666;DHT22;20725;51.196;3.510;2022-12-07T06:48:14;4.30;99.90
15666;DHT22;20725;51.196;3.510;2022-12-07T06:51:11;4.30;99.90
15666;DHT22;20725;51.196;3.510;2022-12-07T06:54:02;4.40;99.90
15666;DHT22;20725;51.196;3.510;2022-12-07T06:57:12;4.40;99.90
15666;DHT22;20725;51.196;3.510;2022-12-07T07:00:20;4.50;99.90
15666;DHT22;20725;51.196;3.510;2022-12-07T07:03:38;4.50;99.90
15666;DHT22;20725;51.196;3.510;2022-12-07T08:36:42;5.20;99.90
15666;DHT22;20725;51.196;3.510;2022-12-07T08:39:29;5.10;99.90
15666;DHT22;20725;51.196;3.510;2022-12-07T08:42:10;4.90;99.90
15666;DHT22;20725;51.196;3.510;2022-12-07T08:44:52;5.10;99.90
15666;DHT22;20725;51.196;3.510;2022-12-07T08:47:34;5.30;99.90
15666;DHT22;20725;51.196;3.510;2022-12-07T08:50:12;5.50;99.90
15666;DHT22;20725;51.196;3.510;2022-12-07T08:56:14;5.30;99.90
15666;DHT22;20725;51.196;3.510;2022-12-07T08:58:55;5.60;99.90
15666;DHT22;20725;51.196;3.510;2022-12-07T09:01:28;5.60;99.90
15666;DHT22;20725;51.196;3.510;2022-12-07T09:04:15;5.90;99.90
15666;DHT22;20725;51.196;3.510;2022-12-07T09:07:01;5.70;99.90
15666;DHT22;20725;51.196;3.510;2022-12-07T09:09:36;6.00;99.90
15666;DHT22;20725;51.196;3.510;2022-12-07T09:15:44;6.00;99.90
15666;DHT22;20725;51.196;3.510;2022-12-07T09:18:31;6.10;99.90
15666;DHT22;20725;51.196;3.510;2022-12-07T09:21:18;6.30;99.90
15666;DHT22;20725;51.196;3.510;2022-12-07T09:23:59;6.10;99.90
15666;DHT22;20725;51.196;3.510;2022-12-07T09:27:00;6.10;99.90
15666;DHT22;20725;51.196;3.510;2022-12-07T09:29:46;6.00;99.90
15666;DHT22;20725;51.196;3.510;2022-12-07T09:35:56;6.10;99.90
15666;DHT22;20725;51.196;3.510;2022-12-07T09:38:32;6.20;99.90
15666;DHT22;20725;51.196;3.510;2022-12-07T09:41:32;6.30;99.90
15666;DHT22;20725;51.196;3.510;2022-12-07T09:44:20;6.20;99.90
15666;DHT22;20725;51.196;3.510;2022-12-07T09:47:12;6.20;99.90
15666;DHT22;20725;51.196;3.510;2022-12-07T09:50:07;6.20;99.90
15666;DHT22;20725;51.196;3.510;2022-12-07T09:56:41;6.70;99.90
15666;DHT22;20725;51.196;3.510;2022-12-07T09:59:27;7.50;99.90
15666;DHT22;20725;51.196;3.510;2022-12-07T10:02:32;7.80;99.90
15666;DHT22;20725;51.196;3.510;2022-12-07T10:08:59;7.60;99.90
15666;DHT22;20725;51.196;3.510;2022-12-07T10:34:46;7.60;99.90
15666;DHT22;20725;51.196;3.510;2022-12-07T10:37:57;7.80;99.90
15666;DHT22;20725;51.196;3.510;2022-12-07T10:41:30;7.90;99.90
15666;DHT22;20725;51.196;3.510;2022-12-07T10:44:25;8.10;99.90
15666;DHT22;20725;51.196;3.510;2022-12-07T10:47:38;8.20;99.90
15666;DHT22;20725;51.196;3.510;2022-12-07T11:21:00;24.30;99.90
15666;DHT22;20725;51.196;3.510;2022-12-07T11:23:58;27.00;99.90
15666;DHT22;20725;51.196;3.510;2022-12-07T11:27:23;26.20;99.90
15666;DHT22;20725;51.196;3.510;2022-12-07T11:30:20;23.20;99.90
15666;DHT22;20725;51.196;3.510;2022-12-07T11:33:33;20.50;99.90
15666;DHT22;20725;51.196;3.510;2022-12-07T11:36:44;19.10;99.90
15666;DHT22;20725;51.196;3.510;2022-12-07T11:39:34;17.90;99.90
15666;DHT22;20725;51.196;3.510;2022-12-07T11:42:36;17.70;99.90
15666;DHT22;20725;51.196;3.510;2022-12-07T11:45:31;16.40;99.90
15666;DHT22;20725;51.196;3.510;2022-12-07T11:48:35;15.70;99.90
15666;DHT22;20725;51.196;3.510;2022-12-07T11:54:27;14.70;99.90
15666;DHT22;20725;51.196;3.510;2022-12-07T11:57:24;14.40;99.90
15666;DHT22;20725;51.196;3.510;2022-12-07T12:00:39;14.20;99.90
15666;DHT22;20725;51.196;3.510;2022-12-07T12:03:28;13.90;99.90
15666;DHT22;20725;51.196;3.510;2022-12-07T12:07:02;13.30;99.90
15666;DHT22;20725;51.196;3.510;2022-12-07T12:16:20;13.50;99.90
15666;DHT22;20725;51.196;3.510;2022-12-07T12:19:25;14.00;99.90
15666;DHT22;20725;51.196;3.510;2022-12-07T12:22:14;13.60;99.90
15666;DHT22;20725;51.196;3.510;2022-12-07T12:24:59;17.30;99.90
15666;DHT22;20725;51.196;3.510;2022-12-07T12:27:48;19.60;99.90
15666;DHT22;20725;51.196;3.510;2022-12-07T12:30:41;19.50;99.90
15666;DHT22;20725;51.196;3.510;2022-12-07T12:33:27;20.00;99.90
15666;DHT22;20725;51.196;3.510;2022-12-07T12:36:23;20.60;95.20
15666;DHT22;20725;51.196;3.510;2022-12-07T12:39:13;19.30;96.30
15666;DHT22;20725;51.196;3.510;2022-12-07T12:42:18;17.20;92.40
15666;DHT22;20725;51.196;3.510;2022-12-07T12:45:20;15.90;90.20
15666;DHT22;20725;51.196;3.510;2022-12-07T12:51:39;14.60;98.70
15666;DHT22;20725;51.196;3.510;2022-12-07T12:54:22;14.80;99.90
15666;DHT22;20725;51.196;3.510;2022-12-07T12:57:09;14.50;84.20
15666;DHT22;20725;51.196;3.510;2022-12-07T12:59:58;14.00;95.50
15666;DHT22;20725;51.196;3.510;2022-12-07T13:02:35;12.50;96.30
15666;DHT22;20725;51.196;3.510;2022-12-07T13:05:31;12.30;97.80
15666;DHT22;20725;51.196;3.510;2022-12-07T13:08:29;12.60;99.90
15666;DHT22;20725;51.196;3.510;2022-12-07T13:11:17;12.60;93.60
15666;DHT22;20725;51.196;3.510;2022-12-07T13:20:52;11.90;99.80
15666;DHT22;20725;51.196;3.510;2022-12-07T13:23:52;11.60;99.20
15666;DHT22;20725;51.196;3.510;2022-12-07T13:26:44;11.40;98.60
15666;DHT22;20725;51.196;3.510;2022-12-07T13:29:26;11.20;99.90
15666;DHT22;20725;51.196;3.510;2022-12-07T13:32:40;11.30;99.50
15666;DHT22;20725;51.196;3.510;2022-12-07T13:35:40;11.30;93.00
15666;DHT22;20725;51.196;3.510;2022-12-07T13:38:30;12.90;99.90
15666;DHT22;20725;51.196;3.510;2022-12-07T13:50:56;20.80;94.50
15666;DHT22;20725;51.196;3.510;2022-12-07T13:53:54;19.70;77.80
15666;DHT22;20725;51.196;3.510;2022-12-07T13:56:47;20.50;92.90
15666;DHT22;20725;51.196;3.510;2022-12-07T13:59:30;18.20;74.20
15666;DHT22;20725;51.196;3.510;2022-12-07T14:02:18;16.00;72.30
15666;DHT22;20725;51.196;3.510;2022-12-07T14:05:16;13.70;78.90
15666;DHT22;20725;51.196;3.510;2022-12-07T14:08:32;12.90;93.60
15666;DHT22;20725;51.196;3.510;2022-12-07T14:11:21;12.20;95.60
15666;DHT22;20725;51.196;3.510;2022-12-07T14:13:56;11.90;97.50
15666;DHT22;20725;51.196;3.510;2022-12-07T14:17:00;11.90;99.40
15666;DHT22;20725;51.196;3.510;2022-12-07T14:19:43;11.50;98.20
15666;DHT22;20725;51.196;3.510;2022-12-07T14:22:31;11.80;98.60
15666;DHT22;20725;51.196;3.510;2022-12-07T14:28:47;10.40;92.40
15666;DHT22;20725;51.196;3.510;2022-12-07T14:31:21;9.70;99.40
15666;DHT22;20725;51.196;3.510;2022-12-07T14:33:59;9.50;99.60
15666;DHT22;20725;51.196;3.510;2022-12-07T14:36:42;9.50;97.00
15666;DHT22;20725;51.196;3.510;2022-12-07T14:39:27;9.20;99.90
15666;DHT22;20725;51.196;3.510;2022-12-07T14:42:16;9.30;99.90
15666;DHT22;20725;51.196;3.510;2022-12-07T14:44:58;9.50;99.90
15666;DHT22;20725;51.196;3.510;2022-12-07T14:47:49;9.50;99.90
15666;DHT22;20725;51.196;3.510;2022-12-07T14:50:36;9.30;99.90
15666;DHT22;20725;51.196;3.510;2022-12-07T14:53:20;9.20;99.90
15666;DHT22;20725;51.196;3.510;2022-12-07T14:56:02;9.00;99.00
15666;DHT22;20725;51.196;3.510;2022-12-07T14:58:43;8.90;99.90
15666;DHT22;20725;51.196;3.510;2022-12-07T15:01:38;8.70;99.90
15666;DHT22;20725;51.196;3.510;2022-12-07T15:04:31;8.60;99.90
15666;DHT22;20725;51.196;3.510;2022-12-07T15:07:53;8.40;99.90
15666;DHT22;20725;51.196;3.510;2022-12-07T15:10:31;8.20;99.90
15666;DHT22;20725;51.196;3.510;2022-12-07T15:13:15;8.00;99.90
15666;DHT22;20725;51.196;3.510;2022-12-07T15:16:02;7.80;99.90
15666;DHT22;20725;51.196;3.510;2022-12-07T15:18:39;7.60;99.90
15666;DHT22;20725;51.196;3.510;2022-12-07T15:21:18;7.50;99.90
15666;DHT22;20725;51.196;3.510;2022-12-07T15:24:08;7.40;99.90
15666;DHT22;20725;51.196;3.510;2022-12-07T15:26:55;7.20;99.90
15666;DHT22;20725;51.196;3.510;2022-12-07T15:29:45;6.90;99.90
15666;DHT22;20725;51.196;3.510;2022-12-07T15:32:22;6.70;99.90
15666;DHT22;20725;51.196;3.510;2022-12-07T15:38:29;6.50;99.90
15666;DHT22;20725;51.196;3.510;2022-12-07T15:41:15;6.50;99.90
15666;DHT22;20725;51.196;3.510;2022-12-07T15:44:02;6.40;99.90
15666;DHT22;20725;51.196;3.510;2022-12-07T15:46:53;6.30;99.40
15666;DHT22;20725;51.196;3.510;2022-12-07T15:49:21;6.10;99.70
15666;DHT22;20725;51.196;3.510;2022-12-07T15:52:04;6.00;98.80
15666;DHT22;20725;51.196;3.510;2022-12-07T15:57:42;5.90;98.80
15666;DHT22;20725;51.196;3.510;2022-12-07T16:00:30;5.80;99.20
15666;DHT22;20725;51.196;3.510;2022-12-07T16:03:13;5.70;98.80
15666;DHT22;20725;51.196;3.510;2022-12-07T16:05:56;5.60;98.60
15666;DHT22;20725;51.196;3.510;2022-12-07T16:08:27;5.60;99.50
15666;DHT22;20725;51.196;3.510;2022-12-07T16:11:20;5.50;99.30
15666;DHT22;20725;51.196;3.510;2022-12-07T16:13:53;5.50;99.70
15666;DHT22;20725;51.196;3.510;2022-12-07T16:16:26;5.40;99.00
15666;DHT22;20725;51.196;3.510;2022-12-07T16:19:14;5.40;99.10
15666;DHT22;20725;51.196;3.510;2022-12-07T16:21:42;5.30;99.60
15666;DHT22;20725;51.196;3.510;2022-12-07T16:24:25;5.30;99.60
15666;DHT22;20725;51.196;3.510;2022-12-07T16:27:08;5.40;99.90
15666;DHT22;20725;51.196;3.510;2022-12-07T16:33:00;5.50;99.90
15666;DHT22;20725;51.196;3.510;2022-12-07T16:35:41;5.70;99.90
15666;DHT22;20725;51.196;3.510;2022-12-07T16:38:12;5.80;99.90
15666;DHT22;20725;51.196;3.510;2022-12-07T16:40:59;5.80;99.90
15666;DHT22;20725;51.196;3.510;2022-12-07T16:43:44;5.90;99.90
15666;DHT22;20725;51.196;3.510;2022-12-07T16:46:25;5.90;99.90
15666;DHT22;20725;51.196;3.510;2022-12-07T16:49:08;5.70;99.90
15666;DHT22;20725;51.196;3.510;2022-12-07T16:51:51;5.80;99.90
15666;DHT22;20725;51.196;3.510;2022-12-07T16:54:27;5.70;99.90
15666;DHT22;20725;51.196;3.510;2022-12-07T16:57:00;5.60;99.90
15666;DHT22;20725;51.196;3.510;2022-12-07T16:59:32;5.50;99.90
15666;DHT22;20725;51.196;3.510;2022-12-07T17:02:16;5.60;99.90
15666;DHT22;20725;51.196;3.510;2022-12-07T17:05:01;5.50;99.90
15666;DHT22;20725;51.196;3.510;2022-12-07T17:07:28;5.60;99.90
15666;DHT22;20725;51.196;3.510;2022-12-07T17:10:00;5.50;99.90
15666;DHT22;20725;51.196;3.510;2022-12-07T17:12:32;5.50;99.90
15666;DHT22;20725;51.196;3.510;2022-12-07T17:15:11;5.40;99.90
15666;DHT22;20725;51.196;3.510;2022-12-07T17:17:44;5.10;99.90
15666;DHT22;20725;51.196;3.510;2022-12-07T17:20:12;4.90;99.90
15666;DHT22;20725;51.196;3.510;2022-12-07T17:22:42;4.90;99.90
15666;DHT22;20725;51.196;3.510;2022-12-07T17:25:16;4.80;99.90
15666;DHT22;20725;51.196;3.510;2022-12-07T17:27:46;4.70;99.90
15666;DHT22;20725;51.196;3.510;2022-12-07T17:30:16;4.70;99.90
15666;DHT22;20725;51.196;3.510;2022-12-07T17:32:45;4.50;99.90
15666;DHT22;20725;51.196;3.510;2022-12-07T17:35:27;4.40;99.90
15666;DHT22;20725;51.196;3.510;2022-12-07T17:37:55;4.30;99.90
15666;DHT22;20725;51.196;3.510;2022-12-07T17:40:24;4.30;99.90
15666;DHT22;20725;51.196;3.510;2022-12-07T17:42:52;4.20;99.90
15666;DHT22;20725;51.196;3.510;2022-12-07T17:45:30;4.20;99.90
15666;DHT22;20725;51.196;3.510;2022-12-07T17:48:00;4.30;99.90
15666;DHT22;20725;51.196;3.510;2022-12-07T17:50:38;4.40;99.90
15666;DHT22;20725;51.196;3.510;2022-12-07T17:53:23;4.40;99.90
15666;DHT22;20725;51.196;3.510;2022-12-07T17:55:55;4.40;99.90
15666;DHT22;20725;51.196;3.510;2022-12-07T17:58:24;4.40;99.90
15666;DHT22;20725;51.196;3.510;2022-12-07T18:00:59;4.40;99.90
15666;DHT22;20725;51.196;3.510;2022-12-07T18:03:27;4.50;99.90
15666;DHT22;20725;51.196;3.510;2022-12-07T18:06:02;4.60;99.90
15666;DHT22;20725;51.196;3.510;2022-12-07T18:08:37;4.70;99.90
15666;DHT22;20725;51.196;3.510;2022-12-07T18:11:11;4.80;99.90
15666;DHT22;20725;51.196;3.510;2022-12-07T18:13:42;4.80;99.90
15666;DHT22;20725;51.196;3.510;2022-12-07T18:16:17;4.80;99.90
15666;DHT22;20725;51.196;3.510;2022-12-07T18:18:46;4.90;99.90
15666;DHT22;20725;51.196;3.510;2022-12-07T18:21:24;4.80;99.90
15666;DHT22;20725;51.196;3.510;2022-12-07T18:23:59;4.90;99.90
15666;DHT22;20725;51.196;3.510;2022-12-07T18:26:31;5.00;99.90
15666;DHT22;20725;51.196;3.510;2022-12-07T18:29:06;5.00;99.90
15666;DHT22;20725;51.196;3.510;2022-12-07T18:31:41;5.00;99.90
15666;DHT22;20725;51.196;3.510;2022-12-07T18:34:13;5.00;99.90
15666;DHT22;20725;51.196;3.510;2022-12-07T18:36:49;5.00;99.90
15666;DHT22;20725;51.196;3.510;2022-12-07T18:39:23;5.00;99.90
15666;DHT22;20725;51.196;3.510;2022-12-07T18:41:55;5.10;99.90
15666;DHT22;20725;51.196;3.510;2022-12-07T18:44:25;5.10;99.90
15666;DHT22;20725;51.196;3.510;2022-12-07T18:47:10;5.20;99.90
15666;DHT22;20725;51.196;3.510;2022-12-07T18:49:40;5.20;99.90
15666;DHT22;20725;51.196;3.510;2022-12-07T18:52:07;5.20;99.90
15666;DHT22;20725;51.196;3.510;2022-12-07T18:54:36;5.20;99.90
15666;DHT22;20725;51.196;3.510;2022-12-07T18:57:27;5.20;99.90
15666;DHT22;20725;51.196;3.510;2022-12-07T19:00:08;5.30;99.90
15666;DHT22;20725;51.196;3.510;2022-12-07T19:02:58;5.30;99.90
15666;DHT22;20725;51.196;3.510;2022-12-07T19:06:02;5.20;99.90
15666;DHT22;20725;51.196;3.510;2022-12-07T19:09:09;5.20;99.90
15666;DHT22;20725;51.196;3.510;2022-12-07T19:11:57;5.20;99.90
15666;DHT22;20725;51.196;3.510;2022-12-07T19:14:58;5.10;99.90
15666;DHT22;20725;51.196;3.510;2022-12-07T19:17:40;5.00;99.90
15666;DHT22;20725;51.196;3.510;2022-12-07T19:20:27;5.00;99.90
15666;DHT22;20725;51.196;3.510;2022-12-07T19:23:07;5.00;99.90
15666;DHT22;20725;51.196;3.510;2022-12-07T19:25:38;5.00;99.90
15666;DHT22;20725;51.196;3.510;2022-12-07T19:28:18;4.90;99.90
15666;DHT22;20725;51.196;3.510;2022-12-07T19:30:50;4.90;99.90
15666;DHT22;20725;51.196;3.510;2022-12-07T19:33:19;4.90;99.90
15666;DHT22;20725;51.196;3.510;2022-12-07T19:35:54;4.90;99.90
15666;DHT22;20725;51.196;3.510;2022-12-07T19:38:47;4.90;99.90
15666;DHT22;20725;51.196;3.510;2022-12-07T19:41:25;4.90;99.90
15666;DHT22;20725;51.196;3.510;2022-12-07T19:44:12;4.90;99.90
15666;DHT22;20725;51.196;3.510;2022-12-07T19:46:42;5.00;99.90
15666;DHT22;20725;51.196;3.510;2022-12-07T19:49:30;4.50;99.90
15666;DHT22;20725;51.196;3.510;2022-12-07T19:52:14;5.00;99.90
15666;DHT22;20725;51.196;3.510;2022-12-07T19:54:47;4.70;99.90
15666;DHT22;20725;51.196;3.510;2022-12-07T19:57:28;5.10;99.90
15666;DHT22;20725;51.196;3.510;2022-12-07T20:00:20;4.90;99.90
15666;DHT22;20725;51.196;3.510;2022-12-07T20:02:50;4.90;99.90
15666;DHT22;20725;51.196;3.510;2022-12-07T20:05:24;4.60;99.90
15666;DHT22;20725;51.196;3.510;2022-12-07T20:08:04;4.90;99.90
15666;DHT22;20725;51.196;3.510;2022-12-07T20:10:47;4.90;99.90
15666;DHT22;20725;51.196;3.510;2022-12-07T20:13:33;4.70;99.90
15666;DHT22;20725;51.196;3.510;2022-12-07T20:16:06;4.60;99.90
15666;DHT22;20725;51.196;3.510;2022-12-07T20:18:47;4.90;99.90
15666;DHT22;20725;51.196;3.510;2022-12-07T20:21:34;4.90;99.90
15666;DHT22;20725;51.196;3.510;2022-12-07T20:24:24;4.80;99.90
15666;DHT22;20725;51.196;3.510;2022-12-07T20:27:04;5.00;99.90
15666;DHT22;20725;51.196;3.510;2022-12-07T20:29:48;4.80;99.90
15666;DHT22;20725;51.196;3.510;2022-12-07T20:32:22;4.90;99.90
15666;DHT22;20725;51.196;3.510;2022-12-07T20:34:58;4.70;99.90
15666;DHT22;20725;51.196;3.510;2022-12-07T20:37:42;4.50;99.90
15666;DHT22;20725;51.196;3.510;2022-12-07T20:40:25;4.50;99.90
15666;DHT22;20725;51.196;3.510;2022-12-07T20:42:55;4.40;99.90
15666;DHT22;20725;51.196;3.510;2022-12-07T20:45:45;4.30;99.90
15666;DHT22;20725;51.196;3.510;2022-12-07T20:48:23;4.20;99.90
15666;DHT22;20725;51.196;3.510;2022-12-07T20:50:52;4.50;99.90
15666;DHT22;20725;51.196;3.510;2022-12-07T20:53:30;4.30;99.90
15666;DHT22;20725;51.196;3.510;2022-12-07T20:56:02;4.30;99.90
15666;DHT22;20725;51.196;3.510;2022-12-07T20:58:39;4.00;99.90
15666;DHT22;20725;51.196;3.510;2022-12-07T21:01:09;4.10;99.90
15666;DHT22;20725;51.196;3.510;2022-12-07T21:03:39;4.00;99.90
15666;DHT22;20725;51.196;3.510;2022-12-07T21:06:12;3.80;99.90
15666;DHT22;20725;51.196;3.510;2022-12-07T21:08:50;3.80;99.90
15666;DHT22;20725;51.196;3.510;2022-12-07T21:11:45;3.80;99.90
15666;DHT22;20725;51.196;3.510;2022-12-07T21:14:30;3.80;99.90
15666;DHT22;20725;51.196;3.510;2022-12-07T21:17:13;3.60;99.90
15666;DHT22;20725;51.196;3.510;2022-12-07T21:19:51;3.40;99.90
15666;DHT22;20725;51.196;3.510;2022-12-07T21:22:23;3.50;99.90
15666;DHT22;20725;51.196;3.510;2022-12-07T21:25:04;3.40;99.90
15666;DHT22;20725;51.196;3.510;2022-12-07T21:27:36;3.40;99.90
15666;DHT22;20725;51.196;3.510;2022-12-07T21:30:09;3.60;99.90
15666;DHT22;20725;51.196;3.510;2022-12-07T21:32:47;3.50;99.90
15666;DHT22;20725;51.196;3.510;2022-12-07T21:35:17;3.50;99.90
15666;DHT22;20725;51.196;3.510;2022-12-07T21:37:57;3.60;99.90
15666;DHT22;20725;51.196;3.510;2022-12-07T21:40:30;3.50;99.90
15666;DHT22;20725;51.196;3.510;2022-12-07T21:43:11;3.40;99.90
15666;DHT22;20725;51.196;3.510;2022-12-07T21:45:55;3.40;99.90
15666;DHT22;20725;51.196;3.510;2022-12-07T21:48:33;3.50;99.90
15666;DHT22;20725;51.196;3.510;2022-12-07T21:51:05;3.60;99.90
15666;DHT22;20725;51.196;3.510;2022-12-07T21:53:46;3.60;99.90
15666;DHT22;20725;51.196;3.510;2022-12-07T21:56:22;3.60;99.90
15666;DHT22;20725;51.196;3.510;2022-12-07T21:59:07;3.40;99.90
15666;DHT22;20725;51.196;3.510;2022-12-07T22:01:53;3.40;99.90
15666;DHT22;20725;51.196;3.510;2022-12-07T22:04:24;3.50;99.90
15666;DHT22;20725;51.196;3.510;2022-12-07T22:06:55;3.30;99.90
15666;DHT22;20725;51.196;3.510;2022-12-07T22:09:27;3.40;99.90
15666;DHT22;20725;51.196;3.510;2022-12-07T22:12:01;3.20;99.90
15666;DHT22;20725;51.196;3.510;2022-12-07T22:14:40;3.30;99.90
15666;DHT22;20725;51.196;3.510;2022-12-07T22:17:24;3.20;99.90
15666;DHT22;20725;51.196;3.510;2022-12-07T22:20:03;3.40;99.90
15666;DHT22;20725;51.196;3.510;2022-12-07T22:22:47;3.20;99.90
15666;DHT22;20725;51.196;3.510;2022-12-07T22:25:35;3.30;99.90
15666;DHT22;20725;51.196;3.510;2022-12-07T22:28:15;3.20;99.90
15666;DHT22;20725;51.196;3.510;2022-12-07T22:31:11;3.30;99.90
15666;DHT22;20725;51.196;3.510;2022-12-07T22:33:55;3.30;99.90
15666;DHT22;20725;51.196;3.510;2022-12-07T22:36:38;3.40;99.90
15666;DHT22;20725;51.196;3.510;2022-12-07T22:39:11;3.20;99.90
15666;DHT22;20725;51.196;3.510;2022-12-07T22:41:52;3.40;99.90